Pflugerville's Hourly Summary for Saturday, July 7, 2018
Hour Temp
(f)
RH
(%)
Solar Rad.
(MJ/m2)
Rainfall
(in)
Wind
(mph)
7/7/2018 12:00 AM 80 70 0 0.03 3.6
7/7/2018 1:00 AM 78 84 0 0 1.58
7/7/2018 2:00 AM 75 84 0 0 1.96
7/7/2018 3:00 AM 75 83 0 0 1.96
7/7/2018 4:00 AM 75 84 0 0 1.94
7/7/2018 5:00 AM 73 89 0 0 2.89
7/7/2018 6:00 AM 73 91 0.01 0 2.91
7/7/2018 7:00 AM 74 91 0.19 0 3.86
7/7/2018 8:00 AM 76 87 0.38 0 3.86
7/7/2018 9:00 AM 77 83 0.38 0.05 5.85
7/7/2018 10:00 AM 77 90 0.35 0.28 5.85
7/7/2018 11:00 AM 74 90 1.1 0.11 4.39
7/7/2018 12:00 PM 81 86 3.08 0.01 6.88
7/7/2018 1:00 PM 84 67 3.49 0 6.88
7/7/2018 2:00 PM 87 58 3.49 0 5.66
7/7/2018 3:00 PM 88 50 3.45 0 4.58
7/7/2018 4:00 PM 88 60 2.46 0 9.26
7/7/2018 5:00 PM 82 66 1.67 0 9.26
7/7/2018 6:00 PM 81 75 0.65 0 2.67
7/7/2018 7:00 PM 79 75 0.31 0 0.19
7/7/2018 8:00 PM 79 73 0.16 0 0.19
7/7/2018 9:00 PM 78 81 0.03 0 0.09
7/7/2018 10:00 PM 76 82 0 0 0.09
7/7/2018 11:00 PM 75 86 0 0 0.02
Data Summary 78 78 21.20 0.48 3.60